Weather at Bell Helicopter Plant-3 Heliport [CLOSED]

Public forecast

Using degrees Fahrenheit for public forecast. Weather courtesy of forecast.io.

Closest aviation weather report (METAR) to Bell Helicopter Plant-3 Heliport

Closest report is Fort Worth Meacham International Airport, 7.5 nm (13.9 km) WNW.

2024/06/20 16:53 (retrieved 45 minutes ago)

KFTW 201653Z 08005KT 10SM FEW028 BKN045 BKN060 28/22 A3018 RMK AO2 SLP212 T02830217

Closest aviation forecast (TAF) to Bell Helicopter Plant-3 Heliport

Closest forecast is Fort Worth Meacham International Airport, 7.5 nm (13.9 km) WNW.

2024/06/20 15:12 Ammendment (retrieved 2 hours ago)

TAF AMD KFTW 201509Z 2015/2112 12009KT P6SM SCT020 BKN200 TEMPO 2015/2017 BKN022 FM201700 12009KT P6SM SCT040 BKN250